Time;durP1;ratioP1;P1;durP2;ratioP2;P2;SDS_P1;SDS_P2;PMS_P1;PMS_P2;Temp;Humidity;BMP_temperature;BMP_pressure;BME280_temperature;BME280_humidity;BME280_pressure;Samples;Min_cycle;Max_cycle;Signal;HPM_P1;HPM_P2
2021/11/18 00:00:53;;;;;;;37.30;19.30;;;11.70;99.90;;;;;;5051578;28;20032;-73
2021/11/18 00:03:20;;;;;;;32.60;18.67;;;11.70;99.90;;;;;;5052419;28;20377;-74
2021/11/18 00:05:46;;;;;;;35.30;19.25;;;11.70;99.90;;;;;;5051743;28;20366;-72
2021/11/18 00:08:12;;;;;;;32.72;19.65;;;11.70;99.90;;;;;;5052528;28;20473;-73
2021/11/18 00:10:44;;;;;;;31.30;18.55;;;11.70;99.90;;;;;;5062775;28;20043;-73
2021/11/18 00:13:13;;;;;;;30.15;17.75;;;11.70;99.90;;;;;;5054858;28;20062;-72
2021/11/18 00:15:41;;;;;;;31.33;18.25;;;11.70;99.90;;;;;;5072833;28;20112;-73
2021/11/18 00:18:10;;;;;;;30.60;18.27;;;11.80;99.90;;;;;;5072682;28;20366;-73
2021/11/18 00:21:01;;;;;;;32.38;18.52;;;11.80;99.90;;;;;;5069809;28;20084;-73
2021/11/18 00:23:31;;;;;;;28.52;17.58;;;11.80;99.90;;;;;;5053438;28;20044;-74
2021/11/18 00:25:57;;;;;;;29.92;16.98;;;11.80;99.90;;;;;;5072190;28;20029;-74
2021/11/18 00:28:23;;;;;;;27.00;17.23;;;11.80;99.90;;;;;;5071999;28;20380;-73
2021/11/18 00:30:49;;;;;;;31.08;17.88;;;11.80;99.90;;;;;;5054125;28;20111;-73
2021/11/18 00:33:15;;;;;;;32.13;18.38;;;11.80;99.90;;;;;;5070199;28;20024;-73
2021/11/18 00:35:41;;;;;;;28.40;16.90;;;11.80;99.90;;;;;;5072244;28;20056;-72
2021/11/18 00:38:07;;;;;;;27.00;17.35;;;11.80;99.90;;;;;;5072369;28;20524;-73
2021/11/18 00:40:36;;;;;;;31.42;17.60;;;11.80;99.90;;;;;;5072161;28;20060;-73
2021/11/18 00:43:05;;;;;;;31.27;17.52;;;11.80;99.90;;;;;;5072431;28;20103;-73
2021/11/18 00:45:31;;;;;;;31.08;17.63;;;11.80;99.90;;;;;;5072242;28;20024;-73
2021/11/18 00:47:57;;;;;;;28.33;16.98;;;11.80;99.90;;;;;;5072327;28;20099;-73
2021/11/18 00:50:30;;;;;;;30.42;16.13;;;11.70;99.90;;;;;;5072350;28;20033;-73
2021/11/18 00:52:56;;;;;;;29.65;17.70;;;11.70;99.90;;;;;;5071943;28;20021;-73
2021/11/18 00:55:25;;;;;;;29.88;16.15;;;11.70;99.90;;;;;;5067227;28;20029;-73
2021/11/18 00:57:51;;;;;;;26.73;15.70;;;11.70;99.90;;;;;;5051890;28;20436;-74
2021/11/18 01:00:27;;;;;;;28.85;17.33;;;11.70;99.90;;;;;;5052185;28;20021;-73
2021/11/18 01:02:54;;;;;;;27.98;16.92;;;11.70;99.90;;;;;;5051959;28;20036;-73
2021/11/18 01:05:25;;;;;;;27.33;17.00;;;11.60;99.90;;;;;;5051700;28;20044;-74
2021/11/18 01:07:52;;;;;;;29.30;16.60;;;11.60;99.90;;;;;;5052456;28;20476;-72
2021/11/18 01:10:19;;;;;;;27.65;17.17;;;11.60;99.90;;;;;;5052041;28;20477;-73
2021/11/18 01:12:45;;;;;;;25.50;16.08;;;11.60;99.90;;;;;;5052074;28;20021;-73
2021/11/18 01:15:17;;;;;;;24.60;15.57;;;11.60;99.90;;;;;;5051478;28;20028;-73
2021/11/18 01:17:44;;;;;;;23.60;15.68;;;11.50;99.90;;;;;;5052671;28;20029;-73
2021/11/18 01:20:11;;;;;;;29.08;16.52;;;11.60;99.90;;;;;;5055382;28;20103;-73
2021/11/18 01:22:38;;;;;;;26.70;15.93;;;11.60;99.90;;;;;;5055415;28;20025;-73
2021/11/18 01:25:05;;;;;;;26.60;15.68;;;11.60;99.90;;;;;;5055257;28;20098;-73
2021/11/18 01:27:30;;;;;;;26.20;16.98;;;11.50;99.90;;;;;;5055627;28;20029;-73
2021/11/18 01:29:57;;;;;;;29.25;15.50;;;11.50;99.90;;;;;;5055518;28;20035;-73
2021/11/18 01:32:23;;;;;;;26.35;15.50;;;11.50;99.90;;;;;;5055783;28;20443;-73
2021/11/18 01:34:49;;;;;;;24.92;14.65;;;11.50;99.90;;;;;;5055748;28;20033;-73
2021/11/18 01:37:14;;;;;;;24.48;14.48;;;11.50;99.90;;;;;;5055672;28;20064;-73
2021/11/18 01:39:40;;;;;;;24.00;14.65;;;11.50;99.90;;;;;;5053716;28;20029;-74
2021/11/18 01:42:06;;;;;;;24.20;14.30;;;11.50;99.90;;;;;;5054283;28;20028;-73
2021/11/18 01:44:40;;;;;;;26.20;14.88;;;11.50;99.90;;;;;;5053289;28;20025;-74
2021/11/18 01:47:08;;;;;;;23.55;13.95;;;11.50;99.90;;;;;;5053807;28;20652;-73
2021/11/18 01:49:35;;;;;;;23.27;14.27;;;11.50;99.90;;;;;;5063399;28;20029;-73
2021/11/18 01:52:04;;;;;;;22.27;14.75;;;11.50;99.90;;;;;;5075227;28;20020;-72
2021/11/18 01:54:33;;;;;;;20.27;13.27;;;11.50;99.90;;;;;;5075206;28;20060;-72
2021/11/18 01:57:02;;;;;;;23.80;14.73;;;11.50;99.90;;;;;;5072969;28;20077;-73
2021/11/18 01:59:34;;;;;;;20.95;13.75;;;11.50;99.90;;;;;;5074964;28;20040;-73
2021/11/18 02:02:00;;;;;;;24.25;14.45;;;11.60;99.90;;;;;;5074959;28;20027;-73
2021/11/18 02:04:29;;;;;;;23.70;14.07;;;11.60;99.90;;;;;;5073875;28;20020;-73
2021/11/18 02:07:02;;;;;;;26.85;15.27;;;11.60;99.90;;;;;;5074535;28;20388;-73
2021/11/18 02:09:35;;;;;;;24.42;14.52;;;11.60;99.90;;;;;;5074624;28;20495;-73
2021/11/18 02:12:05;;;;;;;22.67;14.52;;;11.60;99.90;;;;;;5074674;28;20070;-73
2021/11/18 02:14:32;;;;;;;23.77;15.02;;;11.60;99.90;;;;;;5056604;28;20354;-73
2021/11/18 02:17:01;;;;;;;27.20;16.15;;;11.60;99.90;;;;;;5074518;28;20047;-73
2021/11/18 02:19:33;;;;;;;23.15;14.57;;;11.60;99.90;;;;;;5074504;28;20033;-73
2021/11/18 02:21:59;;;;;;;22.52;14.30;;;11.60;99.90;;;;;;5074700;28;20059;-73
2021/11/18 02:24:33;;;;;;;25.65;15.05;;;11.60;99.90;;;;;;5074345;28;20036;-74
2021/11/18 02:26:59;;;;;;;26.98;14.93;;;11.60;99.90;;;;;;5074408;28;20023;-73
2021/11/18 02:29:26;;;;;;;23.60;14.70;;;11.60;99.90;;;;;;5071240;28;20035;-73
2021/11/18 02:31:59;;;;;;;24.02;14.63;;;11.60;99.90;;;;;;5074330;28;20039;-73
2021/11/18 02:34:46;;;;;;;22.75;15.15;;;11.60;99.90;;;;;;5074269;28;20091;-73
2021/11/18 02:37:12;;;;;;;22.20;14.02;;;11.60;99.90;;;;;;5074430;28;20110;-73
2021/11/18 02:39:39;;;;;;;23.60;14.05;;;11.60;99.90;;;;;;5074301;28;20120;-73
2021/11/18 02:42:06;;;;;;;26.90;15.52;;;11.70;99.90;;;;;;5074391;28;20060;-73
2021/11/18 02:44:32;;;;;;;21.58;14.07;;;11.70;99.90;;;;;;5074102;28;20085;-73
2021/11/18 02:47:00;;;;;;;23.55;15.10;;;11.70;99.90;;;;;;5074348;28;20059;-73
2021/11/18 02:49:25;;;;;;;22.83;14.68;;;11.70;99.90;;;;;;5074207;28;20487;-73
2021/11/18 02:51:51;;;;;;;24.65;14.93;;;11.70;99.90;;;;;;5072073;28;20071;-73
2021/11/18 02:54:17;;;;;;;24.05;15.10;;;11.70;99.90;;;;;;5073507;28;20024;-74
2021/11/18 02:56:44;;;;;;;23.38;14.80;;;11.70;99.90;;;;;;5071924;28;20370;-73
2021/11/18 02:59:10;;;;;;;25.38;15.45;;;11.70;99.90;;;;;;5073532;28;20496;-73
2021/11/18 03:01:40;;;;;;;22.08;13.77;;;11.70;99.90;;;;;;5073376;28;20020;-73
2021/11/18 03:04:07;;;;;;;20.20;13.60;;;11.80;99.90;;;;;;5073724;28;20036;-73
2021/11/18 03:06:33;;;;;;;27.02;15.57;;;11.90;99.90;;;;;;5073490;28;20129;-72
2021/11/18 03:08:59;;;;;;;24.10;14.57;;;12.00;99.90;;;;;;5073833;28;20024;-73
2021/11/18 03:11:26;;;;;;;23.13;14.80;;;12.00;99.90;;;;;;5073864;28;20465;-72
2021/11/18 03:13:53;;;;;;;25.95;15.23;;;12.00;99.90;;;;;;5055798;28;20035;-74
2021/11/18 03:16:20;;;;;;;22.30;13.90;;;12.00;99.90;;;;;;5071318;28;20021;-73
2021/11/18 03:18:46;;;;;;;20.90;14.25;;;12.00;99.90;;;;;;5073325;28;20044;-73
2021/11/18 03:21:18;;;;;;;25.25;15.73;;;12.00;99.90;;;;;;5073578;28;20077;-73
2021/11/18 03:23:45;;;;;;;22.00;13.32;;;12.00;99.90;;;;;;5055544;28;20036;-73
2021/11/18 03:26:15;;;;;;;21.50;14.13;;;12.10;99.90;;;;;;5073042;28;20092;-73
2021/11/18 03:28:41;;;;;;;20.85;13.70;;;12.00;99.90;;;;;;5073206;28;20103;-73
2021/11/18 03:31:08;;;;;;;22.05;14.70;;;12.00;99.90;;;;;;5072935;28;20100;-74
2021/11/18 03:33:48;;;;;;;24.42;14.98;;;12.00;99.90;;;;;;5055111;28;20086;-73
2021/11/18 03:36:14;;;;;;;24.08;14.07;;;11.90;99.90;;;;;;5064788;28;20075;-73
2021/11/18 03:38:41;;;;;;;21.85;13.82;;;11.90;99.90;;;;;;5035068;28;20511;-73
2021/11/18 03:41:08;;;;;;;20.63;13.93;;;11.80;99.90;;;;;;5051987;28;20040;-72
2021/11/18 03:43:38;;;;;;;24.48;14.70;;;11.80;99.90;;;;;;5053195;28;20489;-72
2021/11/18 03:46:05;;;;;;;19.05;13.20;;;11.80;99.90;;;;;;5052872;28;20029;-73
2021/11/18 03:48:33;;;;;;;22.15;14.18;;;11.80;99.90;;;;;;5053024;28;20078;-73
2021/11/18 03:51:01;;;;;;;21.40;12.98;;;11.80;99.90;;;;;;5052816;28;20056;-73
2021/11/18 03:53:27;;;;;;;19.90;13.35;;;11.80;99.90;;;;;;5035465;28;20040;-73
2021/11/18 03:55:53;;;;;;;21.73;14.30;;;11.70;99.90;;;;;;5052946;28;20017;-73
2021/11/18 03:58:19;;;;;;;21.63;14.32;;;11.70;99.90;;;;;;5052274;28;20039;-73
2021/11/18 04:00:45;;;;;;;22.38;14.10;;;11.70;99.90;;;;;;5053016;28;20040;-73
2021/11/18 04:03:14;;;;;;;19.38;13.60;;;11.60;99.90;;;;;;5052361;28;20028;-73
2021/11/18 04:05:40;;;;;;;20.63;14.13;;;11.60;99.90;;;;;;5052225;28;20025;-73
2021/11/18 04:08:08;;;;;;;19.65;13.48;;;11.60;99.90;;;;;;5052585;28;20104;-73
2021/11/18 04:10:36;;;;;;;20.60;14.07;;;11.60;99.90;;;;;;5053314;28;20481;-73
2021/11/18 04:13:03;;;;;;;21.58;14.45;;;11.50;99.90;;;;;;5051956;28;20035;-72
2021/11/18 04:15:30;;;;;;;19.88;13.52;;;11.50;99.90;;;;;;5052418;28;20017;-73
2021/11/18 04:17:55;;;;;;;23.67;14.32;;;11.50;99.90;;;;;;5052681;28;20096;-73
2021/11/18 04:20:23;;;;;;;21.20;14.30;;;11.50;99.90;;;;;;5052597;28;20075;-73
2021/11/18 04:22:50;;;;;;;19.95;13.57;;;11.40;99.90;;;;;;5053017;28;20017;-73
2021/11/18 04:25:20;;;;;;;20.30;13.38;;;11.50;99.90;;;;;;5052276;28;20056;-73
2021/11/18 04:27:46;;;;;;;18.48;12.70;;;11.50;99.90;;;;;;5052154;28;20021;-73
2021/11/18 04:30:14;;;;;;;19.92;14.13;;;11.40;99.90;;;;;;5052259;28;20033;-72
2021/11/18 04:32:40;;;;;;;22.08;14.38;;;11.40;99.90;;;;;;5052222;28;20028;-72
2021/11/18 04:35:07;;;;;;;18.35;12.82;;;11.40;99.90;;;;;;5052151;28;20040;-72
2021/11/18 04:37:34;;;;;;;20.08;13.63;;;11.40;99.90;;;;;;5052500;28;20053;-72
2021/11/18 04:39:59;;;;;;;24.10;13.90;;;11.40;99.90;;;;;;5052097;28;20036;-73
2021/11/18 04:42:26;;;;;;;18.13;12.10;;;11.40;99.90;;;;;;5052200;28;20342;-72
2021/11/18 04:44:52;;;;;;;20.58;14.00;;;11.50;99.90;;;;;;5051668;28;20028;-71
2021/11/18 04:47:17;;;;;;;20.40;12.32;;;11.50;99.90;;;;;;5052628;28;20025;-71
2021/11/18 04:49:45;;;;;;;18.35;12.38;;;11.50;99.90;;;;;;5051944;28;20021;-72
2021/11/18 04:52:13;;;;;;;18.67;12.55;;;11.50;99.90;;;;;;5052081;28;20029;-71
2021/11/18 04:54:40;;;;;;;21.42;13.38;;;11.60;99.90;;;;;;5055948;28;20167;-72
2021/11/18 04:57:06;;;;;;;20.00;12.70;;;11.50;99.90;;;;;;5056807;28;20048;-74
2021/11/18 04:59:33;;;;;;;19.55;13.18;;;11.60;99.90;;;;;;5038118;28;20029;-73
2021/11/18 05:01:59;;;;;;;18.98;13.35;;;11.50;99.90;;;;;;5056026;28;20375;-74
2021/11/18 05:04:25;;;;;;;21.98;12.98;;;11.50;99.90;;;;;;5056456;28;20028;-73
2021/11/18 05:06:50;;;;;;;19.35;13.20;;;11.50;99.90;;;;;;5056339;28;20029;-74
2021/11/18 05:09:16;;;;;;;19.50;13.05;;;11.50;99.90;;;;;;5067371;28;20056;-73
2021/11/18 05:11:44;;;;;;;21.67;13.93;;;11.40;99.90;;;;;;5037946;28;20028;-73
2021/11/18 05:14:10;;;;;;;20.73;14.02;;;11.40;99.90;;;;;;5055868;28;20023;-75
2021/11/18 05:16:37;;;;;;;19.25;13.57;;;11.40;99.90;;;;;;5055804;28;20036;-74
2021/11/18 05:19:04;;;;;;;22.55;14.30;;;11.40;99.90;;;;;;5069164;28;20044;-73
2021/11/18 05:21:31;;;;;;;19.95;13.80;;;11.40;99.90;;;;;;5075937;28;20021;-74
2021/11/18 05:24:02;;;;;;;19.80;13.70;;;11.40;99.90;;;;;;5075632;28;20099;-74
2021/11/18 05:26:29;;;;;;;25.40;13.38;;;11.40;99.90;;;;;;5075650;28;20020;-74
2021/11/18 05:28:55;;;;;;;23.48;14.07;;;11.30;99.90;;;;;;5075731;28;20029;-74
2021/11/18 05:31:23;;;;;;;21.05;14.13;;;11.30;99.90;;;;;;5075361;28;20026;-74
2021/11/18 05:33:50;;;;;;;21.83;14.02;;;11.20;99.90;;;;;;5071427;28;20036;-74
2021/11/18 05:36:17;;;;;;;22.35;14.05;;;11.20;99.90;;;;;;5074699;28;20049;-74
2021/11/18 05:38:44;;;;;;;25.58;14.30;;;11.20;99.90;;;;;;5075199;28;20040;-74
2021/11/18 05:41:12;;;;;;;21.55;14.13;;;11.10;99.90;;;;;;5074715;28;20064;-73
2021/11/18 05:43:40;;;;;;;23.88;13.65;;;11.00;99.90;;;;;;5072993;28;20401;-74
2021/11/18 05:46:06;;;;;;;24.63;14.80;;;11.00;99.90;;;;;;5054977;28;20049;-73
2021/11/18 05:48:32;;;;;;;38.65;12.95;;;11.00;99.90;;;;;;5054890;28;20427;-73
2021/11/18 05:51:00;;;;;;;17.90;12.20;;;11.00;99.90;;;;;;5054975;28;20029;-73
2021/11/18 05:53:30;;;;;;;21.13;13.00;;;11.00;99.90;;;;;;5054532;28;20029;-74
2021/11/18 05:56:00;;;;;;;23.55;14.35;;;11.10;99.90;;;;;;5062085;28;20068;-74
2021/11/18 05:58:26;;;;;;;22.35;13.07;;;11.00;99.90;;;;;;5074815;28;20040;-74
2021/11/18 06:00:52;;;;;;;26.08;13.63;;;11.00;99.90;;;;;;5074944;28;20027;-74
2021/11/18 06:03:18;;;;;;;18.52;12.95;;;11.00;99.90;;;;;;5075149;28;20024;-73
2021/11/18 06:05:44;;;;;;;27.00;13.30;;;11.00;99.90;;;;;;5073857;28;20041;-73
2021/11/18 06:08:10;;;;;;;24.67;11.70;;;11.00;99.90;;;;;;5074877;28;20046;-73
2021/11/18 06:10:36;;;;;;;22.42;12.07;;;11.00;99.90;;;;;;5061524;28;20064;-73
2021/11/18 06:13:03;;;;;;;21.33;13.05;;;11.00;99.90;;;;;;5069329;28;20052;-74
2021/11/18 06:15:29;;;;;;;19.17;11.52;;;11.00;99.90;;;;;;5073880;28;20368;-73
2021/11/18 06:17:55;;;;;;;18.27;11.50;;;11.00;99.90;;;;;;5074019;28;20382;-74
2021/11/18 06:20:21;;;;;;;19.35;13.10;;;11.10;99.90;;;;;;5074627;28;20033;-73
2021/11/18 06:22:49;;;;;;;17.23;12.25;;;11.20;99.90;;;;;;5074560;28;20035;-73
2021/11/18 06:25:18;;;;;;;16.80;10.65;;;11.20;99.90;;;;;;5074901;28;20487;-73
2021/11/18 06:27:46;;;;;;;17.75;10.07;;;11.30;99.90;;;;;;5074494;28;20077;-73
2021/11/18 06:30:17;;;;;;;16.23;11.40;;;11.40;99.90;;;;;;5073378;28;20029;-74
2021/11/18 06:32:43;;;;;;;17.17;10.32;;;11.40;99.90;;;;;;5074403;28;20043;-74
2021/11/18 06:35:10;;;;;;;18.08;11.30;;;11.40;99.90;;;;;;5074434;28;20480;-73
2021/11/18 06:37:35;;;;;;;15.25;10.30;;;11.40;99.90;;;;;;5074261;28;20119;-73
2021/11/18 06:40:02;;;;;;;14.18;10.20;;;11.50;99.90;;;;;;5074399;28;20115;-73
2021/11/18 06:42:29;;;;;;;13.77;9.48;;;11.60;99.90;;;;;;5074150;28;20024;-73
2021/11/18 06:44:55;;;;;;;12.38;8.82;;;11.70;99.90;;;;;;5071961;28;20090;-74
2021/11/18 06:47:21;;;;;;;15.32;9.88;;;11.70;99.90;;;;;;5073693;28;20025;-73
2021/11/18 06:49:46;;;;;;;14.02;9.23;;;11.80;99.90;;;;;;5074181;28;20023;-73
2021/11/18 06:52:12;;;;;;;13.50;9.20;;;11.70;99.90;;;;;;5073881;28;20027;-73
2021/11/18 06:54:38;;;;;;;14.77;9.93;;;11.80;99.90;;;;;;5065941;28;20103;-74
2021/11/18 06:57:05;;;;;;;14.20;9.90;;;11.80;99.90;;;;;;5054392;28;20032;-73
2021/11/18 06:59:31;;;;;;;14.40;9.93;;;11.80;99.90;;;;;;5054161;28;20040;-73
2021/11/18 07:01:57;;;;;;;14.43;9.88;;;11.80;99.90;;;;;;5053407;28;20023;-74
2021/11/18 07:04:23;;;;;;;15.55;10.30;;;11.80;99.90;;;;;;5053752;28;20477;-73
2021/11/18 07:06:50;;;;;;;19.70;9.95;;;11.80;99.90;;;;;;5053962;28;20485;-73
2021/11/18 07:09:16;;;;;;;14.77;10.63;;;11.80;99.90;;;;;;5053699;28;20032;-73
2021/11/18 07:11:42;;;;;;;19.27;10.45;;;11.80;99.90;;;;;;5065644;28;20035;-73
2021/11/18 07:14:08;;;;;;;12.60;9.15;;;11.80;99.90;;;;;;5073274;28;20021;-73
2021/11/18 07:16:34;;;;;;;15.68;9.55;;;11.80;99.90;;;;;;5073602;28;20484;-73
2021/11/18 07:19:04;;;;;;;13.25;8.77;;;11.80;99.90;;;;;;5053408;28;20544;-73
2021/11/18 07:21:33;;;;;;;12.57;8.88;;;11.90;99.90;;;;;;5066105;28;20044;-74
2021/11/18 07:24:02;;;;;;;22.35;9.40;;;12.00;99.90;;;;;;5071883;28;20036;-73
2021/11/18 07:26:29;;;;;;;16.50;10.10;;;12.00;99.90;;;;;;5072711;28;20412;-73
2021/11/18 07:28:55;;;;;;;12.82;8.90;;;12.10;99.90;;;;;;5073507;28;20431;-73
2021/11/18 07:31:21;;;;;;;14.27;9.93;;;12.10;99.90;;;;;;5072029;28;20048;-73
2021/11/18 07:33:47;;;;;;;15.10;9.43;;;12.10;99.90;;;;;;5072221;28;20024;-74
2021/11/18 07:36:13;;;;;;;12.57;8.70;;;12.10;99.90;;;;;;5055350;28;20060;-74
2021/11/18 07:38:39;;;;;;;16.80;8.95;;;12.20;99.90;;;;;;5072592;28;20049;-73
2021/11/18 07:41:08;;;;;;;12.20;8.52;;;12.20;99.90;;;;;;5070263;28;20082;-73
2021/11/18 07:43:38;;;;;;;13.98;9.02;;;12.30;99.90;;;;;;5071629;28;20081;-73
2021/11/18 07:46:07;;;;;;;15.38;9.85;;;12.40;99.90;;;;;;5072357;28;20468;-73
2021/11/18 07:48:33;;;;;;;14.50;9.25;;;12.40;99.90;;;;;;5072407;28;20031;-73
2021/11/18 07:51:00;;;;;;;11.70;8.13;;;12.40;99.90;;;;;;5072262;28;20472;-74
2021/11/18 07:53:27;;;;;;;12.93;9.25;;;12.40;99.90;;;;;;5071937;28;20025;-73
2021/11/18 07:55:54;;;;;;;12.57;8.60;;;12.40;99.90;;;;;;5065822;28;20029;-73
2021/11/18 07:58:20;;;;;;;13.98;9.02;;;12.40;99.90;;;;;;5071952;28;20020;-73
2021/11/18 08:00:48;;;;;;;16.95;9.85;;;12.30;99.90;;;;;;5070841;28;20069;-73
2021/11/18 08:03:15;;;;;;;10.88;8.23;;;12.20;99.90;;;;;;5054259;28;20380;-73
2021/11/18 08:05:42;;;;;;;16.42;8.80;;;12.20;99.90;;;;;;5071627;28;20484;-73
2021/11/18 08:08:08;;;;;;;12.70;8.82;;;12.30;99.90;;;;;;5071943;28;20032;-73
2021/11/18 08:10:34;;;;;;;15.27;8.68;;;12.40;99.90;;;;;;5071418;28;20024;-73
2021/11/18 08:13:00;;;;;;;18.25;9.25;;;12.30;99.90;;;;;;5069023;28;20567;-73
2021/11/18 08:15:27;;;;;;;19.27;8.25;;;12.40;99.90;;;;;;5071546;28;20032;-73
2021/11/18 08:17:53;;;;;;;11.23;8.27;;;12.40;99.90;;;;;;5066188;28;20032;-73
2021/11/18 08:20:20;;;;;;;11.85;8.13;;;12.40;99.90;;;;;;5068855;28;20091;-73
2021/11/18 08:22:46;;;;;;;10.85;8.15;;;12.50;99.90;;;;;;5071157;28;20024;-73
2021/11/18 08:25:14;;;;;;;10.05;7.50;;;12.50;99.90;;;;;;5071730;28;20074;-73
2021/11/18 08:27:42;;;;;;;11.75;7.78;;;12.50;99.90;;;;;;5071413;28;20031;-73
2021/11/18 08:30:15;;;;;;;9.45;6.95;;;12.60;99.90;;;;;;5067555;28;20071;-73
2021/11/18 08:32:47;;;;;;;11.00;7.05;;;12.80;99.90;;;;;;5071826;28;20435;-73
2021/11/18 08:35:15;;;;;;;9.15;6.82;;;12.90;99.90;;;;;;5072191;28;20500;-73
2021/11/18 08:37:42;;;;;;;9.95;6.57;;;13.10;99.90;;;;;;5054160;28;20081;-73
2021/11/18 08:40:09;;;;;;;7.50;5.88;;;13.20;99.90;;;;;;5053750;28;20028;-73
2021/11/18 08:42:35;;;;;;;7.63;6.35;;;13.40;99.90;;;;;;5071962;28;20031;-73
2021/11/18 08:45:01;;;;;;;8.50;6.63;;;13.50;99.90;;;;;;5072336;28;20028;-73
2021/11/18 08:47:27;;;;;;;7.00;5.75;;;13.60;99.90;;;;;;5069061;28;20380;-73
2021/11/18 08:49:53;;;;;;;8.25;5.50;;;13.70;99.90;;;;;;5071420;28;20024;-73
2021/11/18 08:52:23;;;;;;;7.28;5.68;;;13.80;99.90;;;;;;5072079;28;20384;-73
2021/11/18 08:54:53;;;;;;;8.80;5.05;;;13.90;99.90;;;;;;5070502;28;20021;-73
2021/11/18 08:57:20;;;;;;;9.90;5.45;;;14.00;99.90;;;;;;5071315;28;20051;-72
2021/11/18 08:59:47;;;;;;;8.27;5.68;;;14.10;99.90;;;;;;5071298;28;20094;-73
2021/11/18 09:02:25;;;;;;;7.82;5.50;;;14.30;99.90;;;;;;5071103;28;20028;-73
2021/11/18 09:04:51;;;;;;;8.23;5.72;;;14.60;99.90;;;;;;5070719;28;20379;-73
2021/11/18 09:07:17;;;;;;;11.57;6.05;;;14.90;99.90;;;;;;5072088;28;20035;-73
2021/11/18 09:09:43;;;;;;;10.93;5.80;;;15.20;99.90;;;;;;5071844;28;20033;-73
2021/11/18 09:12:09;;;;;;;8.43;5.85;;;15.20;99.90;;;;;;5071212;28;20009;-73
2021/11/18 09:14:36;;;;;;;7.22;5.63;;;15.10;99.90;;;;;;5070771;28;20036;-73
2021/11/18 09:17:05;;;;;;;11.38;6.50;;;15.20;99.90;;;;;;5071129;28;20012;-73
2021/11/18 09:19:33;;;;;;;8.70;5.90;;;15.50;99.90;;;;;;5051871;28;20070;-73
2021/11/18 09:22:01;;;;;;;13.43;6.55;;;15.80;99.90;;;;;;5069009;28;20019;-73
2021/11/18 09:24:33;;;;;;;8.20;5.95;;;17.20;99.90;;;;;;5071535;28;20035;-73
2021/11/18 09:27:06;;;;;;;10.13;5.57;;;19.00;99.90;;;;;;5070756;28;20021;-74
2021/11/18 09:29:32;;;;;;;7.60;5.30;;;19.80;99.90;;;;;;5070584;28;20021;-73
2021/11/18 09:31:59;;;;;;;21.50;6.57;;;20.20;99.90;;;;;;5071204;28;20013;-73
2021/11/18 09:34:27;;;;;;;6.43;5.13;;;21.10;99.90;;;;;;5071061;28;20031;-73
2021/11/18 09:36:54;;;;;;;10.10;4.97;;;21.70;99.90;;;;;;5070734;28;20382;-74
2021/11/18 09:39:21;;;;;;;9.00;4.60;;;22.10;99.90;;;;;;5073111;28;20024;-74
2021/11/18 09:42:02;;;;;;;9.55;5.20;;;23.30;99.90;;;;;;5074994;28;20021;-73
2021/11/18 09:44:57;;;;;;;9.32;4.93;;;23.00;99.90;;;;;;5074456;28;20020;-73
2021/11/18 09:47:59;;;;;;;7.05;5.22;;;23.00;99.90;;;;;;5073370;28;20020;-74
2021/11/18 09:50:54;;;;;;;;;;;23.60;99.20;;;;;;5073216;28;20381;-73
2021/11/18 09:53:36;;;;;;;7.63;5.07;;;23.80;98.00;;;;;;5053798;28;19904;-74
2021/11/18 09:56:08;;;;;;;6.57;5.05;;;24.20;97.00;;;;;;5055182;28;20093;-72
2021/11/18 09:58:42;;;;;;;;;;;24.80;96.20;;;;;;5055520;28;20021;-73
2021/11/18 10:01:30;;;;;;;5.22;4.50;;;25.80;94.70;;;;;;5051026;28;19981;-75
2021/11/18 10:04:20;;;;;;;7.70;4.95;;;25.90;93.20;;;;;;5073773;28;20031;-73
2021/11/18 10:06:51;;;;;;;6.18;4.65;;;25.90;92.30;;;;;;5073514;28;20040;-74
2021/11/18 10:09:43;;;;;;;10.90;4.55;;;24.90;92.00;;;;;;5073858;28;20029;-75
2021/11/18 10:12:24;;;;;;;4.50;3.70;;;25.10;92.00;;;;;;5070929;28;20043;-75
2021/11/18 10:15:01;;;;;;;6.45;4.78;;;24.70;92.10;;;;;;5069874;28;20025;-74
2021/11/18 10:17:28;;;;;;;5.65;4.57;;;23.80;92.50;;;;;;5071939;28;20040;-74
2021/11/18 10:20:11;;;;;;;5.63;4.30;;;23.40;92.90;;;;;;5054539;28;20354;-72
2021/11/18 10:22:44;;;;;;;6.80;4.53;;;24.30;92.20;;;;;;5054670;28;20021;-77
2021/11/18 10:25:19;;;;;;;5.45;3.83;;;24.60;91.30;;;;;;5054794;28;20033;-73
2021/11/18 10:27:52;;;;;;;6.10;4.05;;;24.80;91.00;;;;;;5059939;28;20052;-75
2021/11/18 10:30:39;;;;;;;4.70;3.55;;;25.30;90.40;;;;;;5070373;28;20035;-74
2021/11/18 10:33:12;;;;;;;5.28;4.07;;;24.10;91.20;;;;;;5059400;28;20515;-73
2021/11/18 10:35:53;;;;;;;5.25;3.92;;;23.70;91.60;;;;;;5037112;28;20061;-73
2021/11/18 10:38:31;;;;;;;12.30;4.20;;;23.10;92.10;;;;;;5049609;28;20109;-73
2021/11/18 10:41:02;;;;;;;20.70;3.63;;;23.60;91.80;;;;;;5050422;28;20036;-76
2021/11/18 10:43:33;;;;;;;4.63;3.50;;;24.10;91.30;;;;;;5054161;28;20037;-74
2021/11/18 10:46:17;;;;;;;3.23;2.93;;;23.80;90.90;;;;;;5033580;28;20028;-74
2021/11/18 10:49:18;;;;;;;4.65;3.05;;;23.50;90.80;;;;;;5054085;28;20029;-75
2021/11/18 10:51:55;;;;;;;4.82;3.42;;;23.70;90.80;;;;;;5033684;28;20462;-74
2021/11/18 10:54:40;;;;;;;3.58;2.88;;;25.00;89.30;;;;;;5034063;28;20037;-74
2021/11/18 10:57:14;;;;;;;2.97;2.67;;;25.80;87.30;;;;;;5043516;28;20028;-74
2021/11/18 10:59:52;;;;;;;4.95;2.60;;;25.50;85.80;;;;;;5053848;28;20033;-73
2021/11/18 11:02:34;;;;;;;3.30;2.58;;;25.10;86.10;;;;;;5053928;28;20056;-73
2021/11/18 11:05:03;;;;;;;;;;;25.30;85.40;;;;;;5023678;28;20044;-74
2021/11/18 11:07:42;;;;;;;6.00;2.78;;;23.90;87.70;;;;;;5052944;28;19905;-73
2021/11/18 11:10:13;;;;;;;3.22;2.83;;;22.40;90.30;;;;;;5053139;28;20009;-73
2021/11/18 11:12:50;;;;;;;4.30;3.20;;;20.80;92.30;;;;;;5052737;28;20020;-75
2021/11/18 11:15:21;;;;;;;4.70;3.10;;;19.50;93.80;;;;;;5053248;28;20032;-73
2021/11/18 11:17:47;;;;;;;5.07;3.42;;;19.10;94.70;;;;;;5053050;28;20493;-74
2021/11/18 11:20:54;;;;;;;4.63;3.47;;;18.70;95.10;;;;;;5035155;28;20072;-73
2021/11/18 11:24:04;;;;;;;2.90;2.50;;;18.20;95.80;;;;;;5033562;28;20029;-73
2021/11/18 11:27:05;;;;;;;3.03;2.72;;;18.00;96.30;;;;;;5008373;28;20119;-73
2021/11/18 11:29:39;;;;;;;3.67;3.00;;;17.90;96.50;;;;;;5030655;28;20039;-72
2021/11/18 11:32:30;;;;;;;5.05;3.50;;;17.60;96.80;;;;;;5052089;28;20477;-74
2021/11/18 11:35:04;;;;;;;4.32;3.25;;;17.10;97.30;;;;;;5036607;28;20485;-72
2021/11/18 11:37:49;;;;;;;4.82;2.88;;;16.80;98.00;;;;;;5073029;28;20028;-72
2021/11/18 11:40:31;;;;;;;3.10;2.80;;;16.80;98.30;;;;;;5072598;28;20077;-72
2021/11/18 11:43:25;;;;;;;3.85;2.97;;;16.70;98.60;;;;;;5072415;28;20388;-74
2021/11/18 11:46:08;;;;;;;3.28;2.67;;;16.60;98.90;;;;;;5067811;28;20028;-73
2021/11/18 11:48:58;;;;;;;3.80;2.88;;;16.60;99.10;;;;;;5072008;28;20021;-73
2021/11/18 11:51:39;;;;;;;3.97;3.13;;;16.50;99.30;;;;;;5072657;28;20108;-72
2021/11/18 11:54:23;;;;;;;5.88;3.10;;;16.60;99.40;;;;;;5072788;28;20059;-73
2021/11/18 11:56:53;;;;;;;4.53;3.10;;;16.70;99.40;;;;;;5072955;28;20032;-72
2021/11/18 11:59:30;;;;;;;2.75;2.53;;;16.50;99.40;;;;;;5072664;28;20484;-73
2021/11/18 12:02:23;;;;;;;4.47;3.50;;;16.30;99.80;;;;;;5071933;28;20029;-72
2021/11/18 12:05:01;;;;;;;5.07;3.00;;;16.10;99.90;;;;;;5072259;28;20469;-72
2021/11/18 12:07:57;;;;;;;7.05;3.60;;;16.00;99.90;;;;;;5072091;28;20077;-72
2021/11/18 12:10:28;;;;;;;3.88;3.40;;;15.90;99.90;;;;;;5028301;28;20101;-72
2021/11/18 12:13:08;;;;;;;5.75;3.67;;;16.00;99.90;;;;;;5067548;28;20008;-75
2021/11/18 12:15:45;;;;;;;8.73;3.83;;;15.90;99.90;;;;;;5071016;28;20024;-72
2021/11/18 12:18:22;;;;;;;6.90;3.30;;;15.80;99.90;;;;;;5071333;28;20028;-73
2021/11/18 12:20:48;;;;;;;4.13;2.80;;;15.60;99.90;;;;;;5071934;28;20223;-72
2021/11/18 12:23:20;;;;;;;4.10;3.28;;;15.50;99.90;;;;;;5071774;28;20104;-73
2021/11/18 12:25:48;;;;;;;5.90;3.30;;;15.50;99.90;;;;;;5057207;28;20141;-71
2021/11/18 12:28:18;;;;;;;4.95;2.97;;;15.40;99.90;;;;;;5069174;28;20036;-73
2021/11/18 12:30:47;;;;;;;5.47;3.30;;;15.40;99.90;;;;;;5053575;28;20029;-72
2021/11/18 12:33:18;;;;;;;6.90;3.38;;;15.40;99.90;;;;;;5071065;28;20376;-73
2021/11/18 12:35:56;;;;;;;6.35;3.10;;;15.40;99.90;;;;;;5070262;28;20471;-72
2021/11/18 12:38:58;;;;;;;4.95;3.20;;;15.40;99.90;;;;;;5051470;28;20099;-73
2021/11/18 12:41:39;;;;;;;;;;;15.40;99.90;;;;;;5066466;28;20025;-74
2021/11/18 12:44:26;;;;;;;8.40;3.10;;;15.40;99.90;;;;;;5070736;28;19904;-73
2021/11/18 12:47:04;;;;;;;4.03;2.95;;;15.40;99.90;;;;;;5069129;28;20094;-73
2021/11/18 12:49:44;;;;;;;3.72;2.85;;;15.50;99.90;;;;;;5069603;28;20103;-74
2021/11/18 12:52:19;;;;;;;3.55;2.80;;;15.50;99.90;;;;;;5067835;28;20096;-74